createdAt,value
2022-10-14T00:01:25.470Z,48.60
2022-10-14T00:03:53.772Z,42.42
2022-10-14T00:06:27.185Z,41.50
2022-10-14T00:09:02.764Z,43.75
2022-10-14T00:11:32.162Z,51.58
2022-10-14T00:14:02.224Z,47.75
2022-10-14T00:16:35.720Z,50.17
2022-10-14T00:19:04.253Z,43.85
2022-10-14T00:21:33.604Z,47.13
2022-10-14T00:24:01.616Z,52.70
2022-10-14T00:26:40.731Z,48.90
2022-10-14T00:29:13.479Z,48.85
2022-10-14T00:31:44.092Z,47.30
2022-10-14T00:34:16.323Z,46.83
2022-10-14T00:36:45.234Z,44.10
2022-10-14T00:39:12.600Z,51.90
2022-10-14T00:41:42.557Z,55.10
2022-10-14T00:44:18.349Z,45.47
2022-10-14T00:46:49.407Z,54.25
2022-10-14T00:49:35.876Z,46.05
2022-10-14T00:52:06.570Z,44.63
2022-10-14T00:54:38.577Z,43.65
2022-10-14T00:57:07.687Z,51.47
2022-10-14T01:03:27.027Z,46.38
2022-10-14T01:06:13.378Z,50.58
2022-10-14T01:09:06.172Z,45.80
2022-10-14T01:12:00.149Z,54.08
2022-10-14T01:14:55.555Z,50.95
2022-10-14T01:17:44.550Z,50.65
2022-10-14T01:20:50.248Z,47.20
2022-10-14T01:23:48.644Z,44.53
2022-10-14T01:26:34.421Z,53.90
2022-10-14T01:29:21.488Z,54.28
2022-10-14T01:31:59.900Z,48.53
2022-10-14T01:34:41.478Z,47.13
2022-10-14T01:37:18.667Z,53.25
2022-10-14T01:39:51.424Z,49.30
2022-10-14T01:42:23.091Z,48.63
2022-10-14T01:44:58.134Z,54.78
2022-10-14T01:47:28.947Z,49.25
2022-10-14T01:50:04.155Z,60.60
2022-10-14T01:52:40.164Z,55.47
2022-10-14T01:55:13.848Z,53.95
2022-10-14T01:57:43.465Z,50.03
2022-10-14T02:00:12.062Z,55.33
2022-10-14T02:02:38.898Z,52.92
2022-10-14T02:05:14.861Z,52.33
2022-10-14T02:07:49.537Z,54.22
2022-10-14T02:10:52.035Z,52.58
2022-10-14T02:13:46.405Z,49.63
2022-10-14T02:16:39.065Z,55.03
2022-10-14T02:19:22.001Z,55.25
2022-10-14T02:21:56.303Z,51.50
2022-10-14T02:24:31.781Z,52.50
2022-10-14T02:27:02.797Z,53.28
2022-10-14T02:29:31.923Z,52.70
2022-10-14T02:32:01.325Z,49.47
2022-10-14T02:34:28.241Z,52.30
2022-10-14T02:36:56.067Z,47.60
2022-10-14T02:39:30.078Z,48.60
2022-10-14T02:41:58.213Z,45.90
2022-10-14T02:44:26.695Z,45.97
2022-10-14T02:46:56.649Z,51.22
2022-10-14T02:49:26.840Z,46.42
2022-10-14T02:51:54.119Z,43.95
2022-10-14T02:54:23.352Z,50.83
2022-10-14T02:56:50.395Z,49.92
2022-10-14T02:59:17.408Z,44.70
2022-10-14T03:01:46.319Z,56.47
2022-10-14T03:04:14.905Z,40.38
2022-10-14T03:06:43.051Z,52.92
2022-10-14T03:09:10.635Z,49.88
2022-10-14T03:11:38.782Z,50.78
2022-10-14T03:14:07.245Z,44.92
2022-10-14T03:16:34.107Z,47.30
2022-10-14T03:19:01.495Z,43.92
2022-10-14T03:21:28.901Z,49.20
2022-10-14T03:23:57.837Z,47.08
2022-10-14T03:26:30.045Z,49.35
2022-10-14T03:28:59.630Z,44.28
2022-10-14T03:31:26.407Z,46.03
2022-10-14T03:33:54.051Z,48.75
2022-10-14T03:36:21.900Z,48.63
2022-10-14T03:38:50.458Z,50.65
2022-10-14T03:41:19.787Z,53.58
2022-10-14T03:43:49.548Z,50.35
2022-10-14T03:46:17.727Z,54.05
2022-10-14T03:48:50.094Z,52.13
2022-10-14T03:51:17.553Z,48.25
2022-10-14T03:53:44.860Z,44.28
2022-10-14T03:56:12.915Z,47.67
2022-10-14T03:58:41.633Z,50.45
2022-10-14T04:01:09.991Z,51.10
2022-10-14T04:03:38.661Z,46.92
2022-10-14T04:06:05.989Z,50.25
2022-10-14T04:08:33.097Z,42.28
2022-10-14T04:11:02.688Z,43.42
2022-10-14T04:13:30.004Z,46.53
2022-10-14T04:18:43.971Z,42.72
2022-10-14T04:21:12.711Z,49.63
2022-10-14T04:23:39.913Z,47.97
2022-10-14T04:26:09.481Z,47.67
2022-10-14T04:28:37.153Z,51.15
2022-10-14T04:31:05.724Z,47.85
2022-10-14T04:33:33.203Z,50.13
2022-10-14T04:36:02.245Z,46.95
2022-10-14T04:38:31.248Z,48.00
2022-10-14T04:40:58.934Z,45.15
2022-10-14T04:43:26.322Z,49.60
2022-10-14T04:45:55.910Z,45.83
2022-10-14T04:48:31.953Z,46.60
2022-10-14T04:51:03.397Z,46.17
2022-10-14T04:53:32.105Z,43.88
2022-10-14T04:55:59.969Z,46.53
2022-10-14T05:01:35.315Z,49.35
2022-10-14T05:04:10.479Z,52.38
2022-10-14T05:06:38.945Z,51.33
2022-10-14T05:09:07.017Z,51.00
2022-10-14T05:11:37.900Z,43.42
2022-10-14T05:14:06.762Z,46.45
2022-10-14T05:16:34.139Z,46.60
2022-10-14T05:19:02.390Z,50.70
2022-10-14T05:21:29.217Z,44.85
2022-10-14T05:24:00.891Z,48.10
2022-10-14T05:26:27.694Z,45.08
2022-10-14T05:28:57.829Z,47.65
2022-10-14T05:31:27.023Z,45.25
2022-10-14T05:33:56.629Z,48.35
2022-10-14T05:36:23.808Z,42.45
2022-10-14T05:38:50.971Z,46.33
2022-10-14T05:41:20.820Z,45.03
2022-10-14T05:44:00.397Z,43.90
2022-10-14T05:46:27.678Z,47.25
2022-10-14T05:48:56.628Z,43.90
2022-10-14T05:54:07.923Z,47.25
2022-10-14T05:59:17.405Z,43.05
2022-10-14T06:01:44.805Z,41.90
2022-10-14T06:04:22.803Z,39.85
2022-10-14T06:06:52.457Z,49.30
2022-10-14T06:09:24.188Z,38.60
2022-10-14T06:11:52.576Z,32.53
2022-10-14T06:17:01.583Z,40.28
2022-10-14T06:22:12.195Z,43.25
2022-10-14T06:27:16.563Z,42.55
2022-10-14T06:29:44.310Z,41.00
2022-10-14T06:32:11.811Z,45.38
2022-10-14T06:42:53.715Z,47.92
2022-10-14T06:53:22.401Z,39.00
2022-10-14T06:56:04.255Z,37.65
2022-10-14T06:58:35.900Z,44.38
2022-10-14T07:01:08.420Z,42.95
2022-10-14T07:06:26.117Z,37.70
2022-10-14T07:08:58.856Z,38.20
2022-10-14T07:11:32.344Z,39.45
2022-10-14T07:14:03.233Z,41.45
2022-10-14T07:16:34.717Z,38.67
2022-10-14T07:19:09.528Z,42.97
2022-10-14T07:21:38.808Z,37.55
2022-10-14T07:24:16.245Z,44.92
2022-10-14T07:26:43.948Z,32.53
2022-10-14T07:29:18.461Z,37.35
2022-10-14T07:31:48.733Z,35.80
2022-10-14T07:39:39.911Z,38.63
2022-10-14T07:42:10.016Z,28.63
2022-10-14T07:44:42.592Z,25.93
2022-10-14T07:47:11.979Z,27.73
2022-10-14T07:49:48.538Z,27.80
2022-10-14T08:14:09.775Z,26.43
2022-10-14T08:16:39.313Z,29.30
2022-10-14T08:27:14.432Z,24.43
2022-10-14T08:32:18.390Z,24.90
2022-10-14T08:37:21.444Z,28.87
2022-10-14T08:45:17.790Z,23.33
2022-10-14T08:50:37.794Z,25.33
2022-10-14T09:01:13.526Z,21.67
2022-10-14T09:06:30.223Z,27.70
2022-10-14T09:09:08.996Z,24.80
2022-10-14T09:11:45.672Z,28.67
2022-10-14T09:14:25.683Z,27.10
2022-10-14T09:17:01.005Z,26.80
2022-10-14T09:19:38.579Z,26.70
2022-10-14T09:22:26.997Z,28.63
2022-10-14T09:24:55.401Z,21.60
2022-10-14T09:27:25.111Z,21.50
2022-10-14T09:30:05.499Z,23.10
2022-10-14T09:33:01.115Z,23.97
2022-10-14T09:35:41.405Z,27.97
2022-10-14T09:38:17.056Z,24.77
2022-10-14T09:40:53.175Z,24.23
2022-10-14T09:43:22.601Z,23.27
2022-10-14T09:46:02.585Z,28.73
2022-10-14T09:48:52.546Z,23.70
2022-10-14T09:51:27.263Z,22.33
2022-10-14T09:54:04.164Z,23.00
2022-10-14T09:56:42.191Z,24.87
2022-10-14T09:59:24.532Z,27.10
2022-10-14T10:02:38.926Z,26.00
2022-10-14T10:05:32.337Z,22.40
2022-10-14T10:08:23.845Z,24.60
2022-10-14T10:11:05.415Z,25.70
2022-10-14T10:13:44.068Z,18.63
2022-10-14T10:16:31.653Z,25.40
2022-10-14T10:19:23.809Z,31.10
2022-10-14T10:21:52.076Z,21.53
2022-10-14T10:24:26.005Z,18.37
2022-10-14T10:27:01.576Z,24.43
2022-10-14T10:29:34.990Z,18.87
2022-10-14T10:32:20.483Z,19.73
2022-10-14T10:35:12.449Z,17.40
2022-10-14T10:38:02.673Z,14.97
2022-10-14T10:40:40.307Z,23.07
2022-10-14T10:43:23.076Z,24.20
2022-10-14T10:46:29.347Z,17.67
2022-10-14T10:49:19.474Z,18.73
2022-10-14T10:52:00.223Z,21.77
2022-10-14T10:55:06.884Z,16.43
2022-10-14T10:58:04.770Z,31.10
2022-10-14T11:01:00.574Z,24.60
2022-10-14T11:04:13.589Z,19.20
2022-10-14T11:07:05.103Z,16.20
2022-10-14T11:10:34.354Z,13.97
2022-10-14T11:13:20.978Z,15.77
2022-10-14T11:16:06.091Z,20.30
2022-10-14T11:18:54.212Z,21.70
2022-10-14T11:21:45.853Z,13.53
2022-10-14T11:31:13.760Z,16.63
2022-10-14T11:34:12.023Z,15.97
2022-10-14T11:37:08.929Z,16.37
2022-10-14T11:40:03.911Z,17.37
2022-10-14T11:42:39.860Z,17.63
2022-10-14T11:45:45.600Z,18.63
2022-10-14T11:48:34.328Z,20.33
2022-10-14T11:52:10.865Z,15.93
2022-10-14T11:54:49.402Z,16.60
2022-10-14T11:57:30.892Z,19.90
2022-10-14T12:00:22.724Z,16.73
2022-10-14T12:03:22.820Z,19.70
2022-10-14T12:06:31.903Z,19.10
2022-10-14T12:09:47.180Z,14.03
2022-10-14T12:12:18.001Z,17.87
2022-10-14T12:14:51.111Z,13.93
2022-10-14T12:17:41.337Z,14.67
2022-10-14T12:20:37.632Z,16.43
2022-10-14T12:23:11.943Z,18.63
2022-10-14T12:25:57.207Z,14.37
2022-10-14T12:28:27.559Z,16.20
2022-10-14T12:31:28.950Z,17.60
2022-10-14T12:34:35.069Z,16.30
2022-10-14T12:37:38.801Z,17.20
2022-10-14T12:40:08.585Z,18.00
2022-10-14T12:42:59.221Z,15.07
2022-10-14T12:45:35.172Z,14.10
2022-10-14T12:48:23.945Z,17.00
2022-10-14T12:51:19.630Z,13.73
2022-10-14T12:54:12.079Z,16.53
2022-10-14T12:59:56.587Z,12.43
2022-10-14T13:02:39.468Z,11.20
2022-10-14T13:05:10.854Z,8.10
2022-10-14T13:07:47.022Z,11.93
2022-10-14T13:10:30.153Z,11.00
2022-10-14T13:15:53.094Z,15.63
2022-10-14T13:18:29.918Z,9.03
2022-10-14T13:20:57.831Z,13.73
2022-10-14T13:23:50.401Z,10.17
2022-10-14T13:27:01.675Z,9.77
2022-10-14T13:29:42.089Z,10.37
2022-10-14T13:32:47.699Z,10.40
2022-10-14T13:35:32.520Z,7.90
2022-10-14T13:38:09.942Z,14.93
2022-10-14T13:40:45.877Z,12.90
2022-10-14T13:43:33.342Z,15.03
2022-10-14T13:46:21.233Z,11.57
2022-10-14T13:54:20.365Z,14.93
2022-10-14T13:59:43.687Z,13.80
2022-10-14T14:13:06.782Z,13.03
2022-10-14T14:15:35.739Z,13.70
2022-10-14T14:18:07.744Z,13.27
2022-10-14T14:20:35.702Z,9.10
2022-10-14T14:23:04.533Z,9.30
2022-10-14T14:25:46.482Z,10.03
2022-10-14T14:28:19.090Z,8.93
2022-10-14T14:33:35.273Z,7.53
2022-10-14T14:36:18.088Z,7.03
2022-10-14T14:39:01.849Z,6.60
2022-10-14T14:41:32.062Z,5.53
2022-10-14T14:44:24.466Z,7.60
2022-10-14T14:46:55.907Z,5.93
2022-10-14T14:49:32.013Z,12.00
2022-10-14T14:52:00.436Z,13.77
2022-10-14T14:54:32.705Z,5.60
2022-10-14T14:57:10.860Z,4.50
2022-10-14T14:59:43.664Z,6.27
2022-10-14T15:02:18.607Z,10.50
2022-10-14T15:04:49.255Z,5.97
2022-10-14T15:07:21.697Z,6.40
2022-10-14T15:10:22.950Z,6.03
2022-10-14T15:12:57.241Z,10.90
2022-10-14T15:15:26.726Z,7.13
2022-10-14T15:18:18.924Z,9.80
2022-10-14T15:20:59.236Z,11.30
2022-10-14T15:23:50.671Z,7.37
2022-10-14T15:34:25.938Z,10.40
2022-10-14T15:47:35.665Z,6.30
2022-10-14T15:50:09.548Z,6.93
2022-10-14T15:52:36.593Z,8.43
2022-10-14T15:55:17.203Z,8.33
2022-10-14T15:57:44.223Z,12.83
2022-10-14T16:00:18.160Z,8.57
2022-10-14T16:02:57.201Z,16.83
2022-10-14T16:05:29.844Z,11.47
2022-10-14T16:08:01.534Z,13.10
2022-10-14T16:10:33.583Z,21.43
2022-10-14T16:13:05.723Z,11.83
2022-10-14T16:15:53.360Z,9.63
2022-10-14T16:18:25.038Z,8.33
2022-10-14T16:20:54.532Z,9.30
2022-10-14T16:23:33.337Z,10.57
2022-10-14T16:26:00.734Z,10.47
2022-10-14T16:28:28.485Z,11.00
2022-10-14T16:31:03.054Z,17.03
2022-10-14T16:33:33.023Z,11.95
2022-10-14T16:41:19.766Z,10.23
2022-10-14T16:43:49.977Z,11.48
2022-10-14T16:46:18.539Z,11.32
2022-10-14T16:48:46.061Z,14.63
2022-10-14T16:51:16.076Z,13.15
2022-10-14T17:35:07.535Z,13.23
2022-10-14T18:00:18.321Z,12.68
2022-10-14T18:37:52.870Z,22.97
2022-10-14T18:45:41.608Z,20.70
2022-10-14T18:56:21.803Z,23.45
2022-10-14T19:01:25.773Z,23.95
2022-10-14T19:06:29.364Z,25.80
2022-10-14T19:08:56.690Z,21.13
2022-10-14T19:11:25.861Z,22.98
2022-10-14T19:13:58.126Z,22.33
2022-10-14T19:21:43.804Z,25.17
2022-10-14T19:37:34.304Z,32.58
2022-10-14T19:48:01.582Z,27.35
2022-10-14T20:01:18.713Z,25.50
2022-10-14T20:03:52.097Z,30.95
2022-10-14T20:09:21.565Z,31.42
2022-10-14T20:11:50.364Z,30.67
2022-10-14T20:14:19.173Z,33.75
2022-10-14T20:24:53.313Z,31.73
2022-10-14T20:35:25.258Z,28.20
2022-10-14T20:37:52.350Z,28.63
2022-10-14T20:40:21.560Z,32.63
2022-10-14T20:45:33.244Z,30.02
2022-10-14T20:48:01.155Z,36.75
2022-10-14T20:50:30.211Z,27.92
2022-10-14T20:58:31.676Z,28.13
2022-10-14T21:14:25.349Z,28.05
2022-10-14T21:17:00.998Z,28.65
2022-10-14T21:30:14.073Z,28.42
2022-10-14T21:32:42.160Z,23.65
2022-10-14T21:35:09.660Z,25.83
2022-10-14T21:37:37.655Z,27.48
2022-10-14T21:56:19.238Z,36.05
2022-10-14T21:58:52.361Z,30.00
2022-10-14T22:01:28.616Z,30.48
2022-10-14T22:04:01.708Z,28.63
2022-10-14T22:09:12.819Z,30.55
2022-10-14T22:11:41.717Z,31.45
2022-10-14T22:14:24.108Z,30.67
2022-10-14T22:16:52.805Z,31.50
2022-10-14T22:19:20.179Z,29.73
2022-10-14T22:21:51.156Z,28.27
2022-10-14T22:24:19.908Z,29.40
2022-10-14T22:26:50.936Z,28.42
2022-10-14T22:29:19.343Z,34.83
2022-10-14T22:31:57.673Z,28.83
2022-10-14T22:34:26.208Z,25.30
2022-10-14T22:36:55.751Z,25.75
2022-10-14T22:39:24.991Z,30.70
2022-10-14T22:41:54.726Z,29.45
2022-10-14T22:44:22.317Z,30.25
2022-10-14T22:46:49.391Z,30.33
2022-10-14T22:52:07.413Z,28.95
2022-10-14T22:54:38.858Z,31.15
2022-10-14T22:57:06.098Z,24.58
2022-10-14T22:59:33.608Z,27.35
2022-10-14T23:02:00.827Z,31.45
2022-10-14T23:04:31.683Z,25.00
2022-10-14T23:07:03.073Z,26.10
2022-10-14T23:12:02.229Z,28.42
2022-10-14T23:17:07.699Z,24.83
2022-10-14T23:24:53.228Z,24.67
2022-10-14T23:27:23.149Z,31.45
2022-10-14T23:35:14.418Z,26.70
2022-10-14T23:37:43.439Z,29.08
2022-10-14T23:56:24.565Z,32.05
